Hauptseite
METAR-TAF:

METAR-TAF

Flughäfen :

Leuchars, Schottland

Breite: 56-23N, Länge: 002-52W, Höhe: 12 m

Beobachtung

Neuester Wetterbericht von vor 53 Minuten, um 09:50 UTC
Wind 11 kt aus West/Südwest
Temperatur 7°C
Luftfeuchtigkeit 93%
Luftdruck 1018 hPa
Sichtweite 10 km oder mehr
keine Wolken unter 1500 m und keine Kumulonimbus oder Gewitterwolken

METAR: EGQL 240950Z 25011KT CAVOK 07/06 Q1018 BLU

Zeit: 10:43 (10:43 UTC)

Prognose

Neuester Wetterbericht von vor 3 Stunden und 25 Minuten, um 07:18 UTC
Gültige Prognose vom 24 um 09 UTC bis 24 um 18 UTC
Wind 15 kt aus West
Sichtweite 10 km oder mehr
Leicht bewölkt in der Höhe von 2000 ft

TAF: EGQL 240718Z 2409/2418 26015KT 9999 FEW020

Wetterbeobachtungen und Prognosen von mehr als 4000 Flughäfen (METAR und TAF Bericht).

Die verfügbaren Stationen werden durch gelbe und rote Markierungen auf der Karte dargestellt.

Führen Sie die Maus auf sie, um den Namen der Station zu sehen.

Darauf klicken, um die Beobachtung von Wetterbeobachtungen und Prognosen zu sehen.

Um die Karte zu ändern : klicken Sie auf den grünen Tasten mit einem schwarzen Kreuz Zum Vergrößern, auf den grünen Button mit einem Gedankenstrich zu verkleinern, oder auf die grünen Pfeile für benachbarte Karten.


METAR-TAF: